Jordan Valley, OR (97910)

11:11 AM MST on December 09, 2016 (GMT -0700)
Nampa | | Change Station

Elev 2536 ft 43.58 °N, 116.52 °W | Updated 16 minutes ago

Rain
Rain
28 °F
Feels Like 28 °F
N
0
Wind Variable Wind from North

Today
High -- | Low -- °F
--% Chance of Precip.
Yesterday
High -- | Low -- °F
Precip. -- in
Pressure 30.17 in
Visibility 6.0 miles
Clouds Few 4200 ft
Scattered Clouds 4900 ft
Dew Point 27 °F
Humidity 93%
Rainfall 0.01 in
Snow Depth Not available.
8:08 AM 5:13 PM
Waxing Gibbous, 76% visible
METAR KMAN 091755Z AUTO 00000KT 6SM BR FEW042 SCT049 M02/M03 A3017 RMK A01
Pressure 30.17 in
Visibility 6.0 miles
Clouds Few 4200 ft
Scattered Clouds 4900 ft
Dew Point 27 °F
Humidity 93%
Rainfall 0.01 in
Snow Depth Not available.
8:08 AM 5:13 PM
Waxing Gibbous, 76% visible
METAR KMAN 091755Z AUTO 00000KT 6SM BR FEW042 SCT049 M02/M03 A3017 RMK A01

10-Day Weather Forecast

Almanac

Astronomy

Dec. 09, 2016 Rise Set
Actual Time
Civil Twilight
Nautical Twilight
Astronomical Twilight
Moon
Length of Visible Light
Length of Day
Tomorrow will be .
, % of the Moon is Illuminated

Today's Extremes

State Highs State Lows

Community

WunderPhotos

Upload Photos

1,956,499 photos uploaded!

WunderBlog® & News

Nearby

Air Quality

  Air Quality AQ Index Pollutant
Not available.

Snow Depth

Station Depth Elevation

Earthquake Activity

City Distance Mag. Time & Date
Minimum magnitude displayed is 2.5.

Coastal Water Temperatures

Place Temperature

Stations

Nearby Weather Stations

Station Location Temp. Windchill Dew Point Humidity Wind Precip. Elev Updated Type
                   

Watches & Warnings

There are currently no watches in effect.